Dunkirk, NY

2:50 PM EDT on July 20, 2017 (GMT -0400)
Chautauqua County-Dunkirk

Weather History for KDKK - December, 2013

Change the Weather History Date:

Tuesday, December 31, 2013

  Actual Average Record
Temperature  
Mean Temperature 20 °F -  
Max Temperature 23 °F 34 °F 61 °F (1965)
Min Temperature 17 °F 21 °F 2 °F (1962)
Degree Days  
Heating Degree Days 45    
Moisture  
Dew Point 14 °F    
Average Humidity 77    
Maximum Humidity 93    
Minimum Humidity 62    
Precipitation  
Precipitation 0.08 in - - ()
Sea Level Pressure  
Sea Level Pressure 30.13 in    
Wind  
Wind Speed 16 mph (WSW)    
Max Wind Speed 25 mph    
Max Gust Speed 41 mph    
Visibility 2 miles    
Events Fog , Snow    
Averages and records for this station are not official NWS values.
T = Trace of Precipitation, MM = Missing Value Source: NWS Daily Summary

Daily Weather History Graph

Daily Weather History Graph

Search for Another Location

Airport or City:

Trip Planner

Search our weather history database for the weather conditions in past years. The results will help you decide how hot, cold, wet, or windy it might be!

Date:

Astronomy

Dec. 31, 2013 Rise Set
Actual Time 7:46 AM EST 4:54 PM EST
Civil Twilight 7:14 AM EST 5:25 PM EST
Nautical Twilight 6:39 AM EST 6:01 PM EST
Astronomical Twilight 6:05 AM EST 6:35 PM EST
Moon 6:36 AM EST (12/31) 4:29 PM EST (12/31)
Length of Visible Light 10h 11m
Length of Day
9h 07m
Waning Crescent, 1% of the Moon is Illuminated
Dec 31
Waning Crescent
Jan 1
New
Jan 7
First Quarter
Jan 15
Full
Jan 24
Last Quarter

Hourly Weather History & Observations

Time (EST) Temp. Windchill Dew Point Humidity Pressure Visibility Wind Dir Wind Speed Gust Speed Precip Events Conditions
12:53 AM 19.0 °F 4.5 °F 8.1 °F 62% 30.14 in 10.0 mi South 16.1 mph - N/A   Overcast
1:53 AM 18.0 °F 6.9 °F 8.1 °F 65% 30.11 in 10.0 mi South 9.2 mph 19.6 mph N/A   Overcast
2:53 AM 19.0 °F 5.0 °F 9.0 °F 65% 30.11 in 10.0 mi South 15.0 mph 20.7 mph N/A   Overcast
3:53 AM 19.9 °F 7.3 °F 10.0 °F 65% 30.08 in 10.0 mi SSW 12.7 mph 20.7 mph N/A   Overcast
4:53 AM 19.9 °F 8.6 °F 10.9 °F 68% 30.05 in 10.0 mi South 10.4 mph 19.6 mph N/A   Overcast
5:53 AM 19.9 °F 9.3 °F 12.9 °F 74% 30.03 in 5.0 mi SSW 9.2 mph 20.7 mph 0.00 in Snow Light Snow
6:30 AM 19.4 °F 6.0 °F 14.0 °F 80% 29.99 in 2.0 mi SSW 13.8 mph 23.0 mph 0.00 in Snow Light Snow
6:48 AM 19.4 °F 7.2 °F 14.0 °F 80% 29.99 in 4.0 mi SSW 11.5 mph 21.9 mph 0.00 in Snow Light Snow
6:53 AM 19.9 °F 6.2 °F 14.0 °F 78% 30.02 in 4.0 mi SSW 15.0 mph 21.9 mph 0.00 in Snow Light Snow
7:53 AM 21.0 °F 6.6 °F 15.1 °F 78% 30.00 in 6.0 mi SSW 17.3 mph 23.0 mph 0.00 in Snow Light Snow
8:08 AM 21.2 °F 6.4 °F 15.8 °F 80% 29.96 in 1.8 mi SSW 18.4 mph 32.2 mph 0.00 in Snow Light Snow
8:18 AM 21.2 °F 7.8 °F 15.8 °F 80% 29.96 in 3.0 mi SW 15.0 mph 24.2 mph 0.00 in Snow Light Snow
8:38 AM 21.2 °F 6.0 °F 15.8 °F 80% 29.97 in 2.0 mi SW 19.6 mph 25.3 mph 0.00 in Snow Light Snow
8:44 AM 21.2 °F 7.8 °F 15.8 °F 80% 29.97 in 1.0 mi SW 15.0 mph 27.6 mph 0.00 in Snow Light Snow
8:53 AM 21.9 °F 7.3 °F 17.1 °F 82% 30.01 in 0.5 mi SW 18.4 mph 24.2 mph 0.00 in Snow Snow
9:00 AM 21.2 °F 5.6 °F 17.6 °F 86% 29.98 in 0.2 mi SW 20.7 mph 25.3 mph 0.00 in Fog , Snow Snow
9:11 AM 21.2 °F 7.3 °F 17.6 °F 86% 29.98 in 0.2 mi SW 16.1 mph 21.9 mph 0.00 in Fog , Snow Snow
9:34 AM 23.0 °F 8.7 °F 17.6 °F 80% 29.99 in 1.0 mi SW 18.4 mph 25.3 mph 0.01 in Snow Light Snow
9:44 AM 21.2 °F 8.9 °F 17.6 °F 86% 30.00 in 0.8 mi WSW 12.7 mph 26.5 mph 0.01 in Snow Light Snow
9:53 AM 23.0 °F 11.1 °F 19.0 °F 85% 30.04 in 0.2 mi West 12.7 mph 31.1 mph 0.01 in Fog , Snow Snow
10:00 AM 21.2 °F 4.2 °F 17.6 °F 86% 30.01 in 0.2 mi West 25.3 mph 36.8 mph 0.00 in Fog , Snow Snow
10:07 AM 21.2 °F 6.8 °F 15.8 °F 80% 30.02 in 0.8 mi West 17.3 mph 36.8 mph 0.00 in Snow Light Snow
10:12 AM 21.2 °F 6.4 °F 15.8 °F 80% 30.02 in 1.0 mi West 18.4 mph 36.8 mph 0.00 in Snow Light Snow
10:20 AM 21.2 °F 6.0 °F 14.0 °F 74% 30.03 in 1.5 mi West 19.6 mph 29.9 mph 0.00 in Snow Light Snow
10:23 AM 21.2 °F 5.6 °F 12.2 °F 68% 30.03 in 2.0 mi West 20.7 mph 33.4 mph 0.00 in Snow Light Snow
10:32 AM 21.2 °F 7.3 °F 14.0 °F 74% 30.04 in 1.8 mi West 16.1 mph 33.4 mph 0.00 in Snow Light Snow
10:53 AM 21.0 °F 6.6 °F 12.9 °F 71% 30.09 in 1.5 mi West 17.3 mph 33.4 mph 0.00 in Snow Light Snow
11:44 AM 21.2 °F 5.2 °F 12.2 °F 68% 30.05 in 2.0 mi West 21.9 mph 29.9 mph 0.00 in Snow Light Snow
11:51 AM 21.2 °F 7.8 °F 14.0 °F 74% 30.06 in 1.2 mi West 15.0 mph 29.9 mph 0.00 in Snow Light Snow
11:53 AM 21.0 °F 6.6 °F 14.0 °F 74% 30.10 in 1.2 mi West 17.3 mph 29.9 mph 0.00 in Snow Light Snow
12:06 PM 21.2 °F 6.4 °F 15.8 °F 80% 30.06 in 0.8 mi West 18.4 mph 28.8 mph 0.00 in Snow Light Snow
12:53 PM 19.9 °F 4.8 °F 14.0 °F 78% 30.11 in 0.8 mi West 18.4 mph 32.2 mph 0.00 in Snow Light Snow
1:00 PM 21.2 °F 6.4 °F 14.0 °F 74% 30.08 in 1.2 mi West 18.4 mph 34.5 mph 0.00 in Snow Light Snow
1:07 PM 19.4 °F 3.2 °F 12.2 °F 74% 30.08 in 0.8 mi West 20.7 mph 35.7 mph 0.00 in Snow Light Snow
1:16 PM 21.2 °F 4.9 °F 12.2 °F 68% 30.08 in 1.2 mi West 23.0 mph 34.5 mph 0.00 in Snow Light Snow
1:37 PM 21.2 °F 4.2 °F 10.4 °F 63% 30.10 in 1.0 mi West 25.3 mph 41.4 mph 0.00 in Snow Light Snow
1:43 PM 21.2 °F 5.6 °F 10.4 °F 63% 30.10 in 1.2 mi West 20.7 mph 41.4 mph 0.00 in Snow Light Snow
1:53 PM 21.0 °F 4.6 °F 10.9 °F 65% 30.15 in 1.5 mi West 23.0 mph 35.7 mph 0.00 in Snow Light Snow
2:03 PM 21.2 °F 5.2 °F 12.2 °F 68% 30.12 in 2.0 mi West 21.9 mph 40.3 mph 0.00 in Snow Light Snow
2:15 PM 19.4 °F 3.6 °F 12.2 °F 74% 30.13 in 1.8 mi West 19.6 mph 35.7 mph 0.00 in Snow Light Snow
2:24 PM 19.4 °F 2.8 °F 10.4 °F 68% 30.13 in 2.0 mi West 21.9 mph 36.8 mph 0.00 in Snow Light Snow
2:32 PM 19.4 °F 2.5 °F 10.4 °F 68% 30.14 in 1.8 mi West 23.0 mph 33.4 mph 0.00 in Snow Light Snow
2:53 PM 19.0 °F 1.6 °F 12.0 °F 74% 30.19 in 1.0 mi West 24.2 mph 36.8 mph 0.00 in Snow Light Snow
3:07 PM 19.4 °F 3.2 °F 12.2 °F 74% 30.16 in 0.5 mi West 20.7 mph 35.7 mph 0.00 in Snow Snow
3:25 PM 19.4 °F 2.8 °F 12.2 °F 74% 30.17 in 1.2 mi West 21.9 mph 31.1 mph 0.00 in Snow Light Snow
3:46 PM 19.4 °F 3.6 °F 12.2 °F 74% 30.17 in 1.0 mi West 19.6 mph 29.9 mph 0.00 in Snow Light Snow
3:50 PM 19.4 °F 4.1 °F 12.2 °F 74% 30.17 in 2.0 mi West 18.4 mph 32.2 mph 0.00 in Snow Light Snow
3:53 PM 19.9 °F 3.2 °F 12.0 °F 71% 30.21 in 4.0 mi West 23.0 mph 34.5 mph 0.00 in Snow Light Snow
4:01 PM 19.4 °F 3.6 °F 12.2 °F 74% 30.18 in 2.5 mi West 19.6 mph 36.8 mph 0.00 in Snow Light Snow
4:19 PM 21.2 °F 5.2 °F 10.4 °F 63% 30.18 in 6.0 mi West 21.9 mph 32.2 mph 0.00 in Snow Light Snow
4:53 PM 19.9 °F 3.9 °F 9.0 °F 62% 30.23 in 6.0 mi West 20.7 mph 33.4 mph 0.00 in Snow Light Snow
5:45 PM 21.2 °F 9.5 °F 10.4 °F 63% 30.20 in 10.0 mi West 11.5 mph 27.6 mph 0.00 in   Overcast
5:53 PM 21.0 °F 7.1 °F 12.0 °F 68% 30.24 in 5.0 mi SW 16.1 mph 21.9 mph 0.00 in Snow Light Snow
5:58 PM 19.4 °F 6.0 °F 14.0 °F 80% 30.20 in 1.8 mi WSW 13.8 mph 21.9 mph 0.00 in Snow Light Snow
6:26 PM 19.4 °F 5.5 °F 15.8 °F 86% 30.21 in 0.8 mi SW 15.0 mph 21.9 mph 0.00 in Snow Light Snow
6:35 PM 19.4 °F 6.0 °F 15.8 °F 86% 30.21 in 1.2 mi SW 13.8 mph 20.7 mph 0.00 in Snow Light Snow
6:44 PM 19.4 °F 7.9 °F 15.8 °F 86% 30.21 in 3.0 mi SW 10.4 mph - 0.00 in Snow Light Snow
6:53 PM 19.9 °F 7.3 °F 14.0 °F 78% 30.25 in 4.0 mi West 12.7 mph 19.6 mph 0.00 in Snow Light Snow
7:20 PM 19.4 °F 6.6 °F 14.0 °F 80% 30.22 in 1.8 mi SW 12.7 mph 23.0 mph 0.00 in Snow Light Snow
7:25 PM 19.4 °F 7.9 °F 15.8 °F 86% 30.23 in 0.8 mi WSW 10.4 mph 23.0 mph 0.00 in Snow Light Snow
7:34 PM 19.4 °F 7.2 °F 15.8 °F 86% 30.23 in 0.2 mi SW 11.5 mph - 0.00 in Fog , Snow Heavy Snow
7:50 PM 17.6 °F 4.3 °F 15.8 °F 93% 30.23 in 0.2 mi WSW 12.7 mph 20.7 mph 0.01 in Fog , Snow Heavy Snow
7:53 PM 18.0 °F 6.9 °F 16.0 °F 92% 30.27 in 0.2 mi SW 9.2 mph 20.7 mph 0.02 in Fog , Snow Heavy Snow
8:42 PM 17.6 °F 6.4 °F 15.8 °F 93% 30.23 in 0.5 mi SW 9.2 mph - 0.04 in Fog , Snow Snow
8:53 PM 18.0 °F 6.1 °F 15.1 °F 88% 30.27 in 0.5 mi SW 10.4 mph 17.3 mph 0.04 in Fog , Snow Snow
9:19 PM 17.6 °F 5.7 °F 14.0 °F 86% 30.23 in 1.0 mi SW 10.4 mph - 0.00 in Snow Light Snow
9:33 PM 17.6 °F 7.3 °F 14.0 °F 86% 30.23 in 1.2 mi SW 8.1 mph - 0.00 in Snow Light Snow
9:44 PM 17.6 °F 6.4 °F 14.0 °F 86% 30.23 in 1.2 mi SW 9.2 mph - 0.00 in Snow Light Snow
9:53 PM 18.0 °F 8.7 °F 14.0 °F 84% 30.27 in 1.2 mi SW 6.9 mph - 0.00 in Snow Light Snow
10:05 PM 17.6 °F 7.3 °F 14.0 °F 86% 30.23 in 1.0 mi SSW 8.1 mph - 0.00 in Snow Light Snow
10:22 PM 17.6 °F 9.3 °F 14.0 °F 86% 30.23 in 1.2 mi SSW 5.8 mph - 0.00 in Snow Light Snow
10:32 PM 17.6 °F 8.2 °F 14.0 °F 86% 30.23 in 1.0 mi SSW 6.9 mph - 0.00 in Snow Light Snow
10:53 PM 18.0 °F 8.7 °F 15.1 °F 88% 30.27 in 0.8 mi SW 6.9 mph - 0.01 in Snow Light Snow
11:16 PM 17.6 °F 7.3 °F 15.8 °F 93% 30.23 in 0.8 mi SW 8.1 mph 20.7 mph 0.00 in Snow Light Snow
11:53 PM 18.0 °F 6.1 °F 15.1 °F 88% 30.27 in 0.5 mi SW 10.4 mph - 0.00 in Fog , Snow Snow